createdAt,value
2022-08-20T00:01:09.251Z,100345.01
2022-08-20T00:06:19.556Z,100354.20
2022-08-20T00:11:27.460Z,100365.51
2022-08-20T00:16:38.030Z,100384.33
2022-08-20T00:21:43.444Z,100384.86
2022-08-20T00:26:52.409Z,100375.93
2022-08-20T00:31:58.442Z,100371.92
2022-08-20T00:37:04.312Z,100376.52
2022-08-20T00:42:10.147Z,100371.81
2022-08-20T00:47:15.705Z,100360.79
2022-08-20T00:52:22.163Z,100363.39
2022-08-20T00:57:44.587Z,100347.23
2022-08-20T01:03:00.961Z,100345.68
2022-08-20T01:08:07.644Z,100334.02
2022-08-20T01:13:17.275Z,100314.60
2022-08-20T01:18:28.195Z,100305.70
2022-08-20T01:23:40.612Z,100300.30
2022-08-20T01:28:48.779Z,100292.55
2022-08-20T01:33:55.685Z,100293.55
2022-08-20T01:39:03.830Z,100281.57
2022-08-20T01:44:16.733Z,100267.90
2022-08-20T01:49:26.489Z,100272.90
2022-08-20T01:54:34.071Z,100278.52
2022-08-20T01:59:39.527Z,100269.80
2022-08-20T02:04:45.597Z,100257.92
2022-08-20T02:09:51.722Z,100255.21
2022-08-20T02:14:57.328Z,100250.84
2022-08-20T02:20:08.981Z,100253.48
2022-08-20T02:25:16.307Z,100251.19
2022-08-20T02:30:27.969Z,100252.73
2022-08-20T02:35:33.989Z,100259.17
2022-08-20T02:40:40.395Z,100257.55
2022-08-20T02:45:45.983Z,100265.16
2022-08-20T02:50:54.879Z,100283.94
2022-08-20T02:56:01.992Z,100288.42
2022-08-20T03:01:12.419Z,100300.26
2022-08-20T03:06:18.311Z,100295.30
2022-08-20T03:11:23.886Z,100287.02
2022-08-20T03:16:29.318Z,100266.67
2022-08-20T03:21:35.283Z,100262.14
2022-08-20T03:26:40.703Z,100241.18
2022-08-20T03:31:46.466Z,100225.56
2022-08-20T03:36:51.918Z,100219.95
2022-08-20T03:41:57.376Z,100209.14
2022-08-20T03:47:07.829Z,100210.23
2022-08-20T03:52:13.479Z,100197.38
2022-08-20T03:57:19.210Z,100192.53
2022-08-20T04:02:25.224Z,100190.59
2022-08-20T04:07:30.750Z,100206.02
2022-08-20T04:12:40.814Z,100230.68
2022-08-20T04:17:54.610Z,100242.92
2022-08-20T04:23:00.314Z,100251.25
2022-08-20T04:28:15.835Z,100258.20
2022-08-20T04:33:33.304Z,100250.31
2022-08-20T04:38:49.706Z,100262.55
2022-08-20T04:43:58.083Z,100267.99
2022-08-20T04:49:04.236Z,100263.15
2022-08-20T04:54:10.051Z,100263.58
2022-08-20T04:59:20.165Z,100273.25
2022-08-20T05:04:27.654Z,100276.20
2022-08-20T05:09:43.793Z,100272.42
2022-08-20T05:14:50.163Z,100268.90
2022-08-20T05:19:55.875Z,100273.77
2022-08-20T05:25:01.956Z,100265.50
2022-08-20T05:30:11.773Z,100260.29
2022-08-20T05:35:19.433Z,100264.55
2022-08-20T05:40:25.509Z,100270.21
2022-08-20T05:45:31.293Z,100265.93
2022-08-20T05:50:37.282Z,100270.66
2022-08-20T05:55:43.736Z,100270.73
2022-08-20T06:00:50.335Z,100279.20
2022-08-20T06:05:55.985Z,100279.41
2022-08-20T06:11:01.591Z,100281.36
2022-08-20T06:16:07.347Z,100281.14
2022-08-20T06:21:13.758Z,100285.61
2022-08-20T06:26:24.337Z,100286.35
2022-08-20T06:31:39.740Z,100286.89
2022-08-20T06:36:46.726Z,100292.08
2022-08-20T06:41:53.095Z,100294.52
2022-08-20T06:47:04.356Z,100294.05
2022-08-20T06:52:10.237Z,100296.02
2022-08-20T06:57:17.342Z,100297.56
2022-08-20T07:02:30.078Z,100297.02
2022-08-20T07:07:44.629Z,100293.30
2022-08-20T07:12:51.423Z,100288.13
2022-08-20T07:18:01.350Z,100292.57
2022-08-20T07:23:08.404Z,100296.97
2022-08-20T07:28:17.175Z,100301.10
2022-08-20T07:33:23.051Z,100300.89
2022-08-20T07:38:31.980Z,100302.89
2022-08-20T07:43:39.534Z,100289.59
2022-08-20T07:48:47.154Z,100296.50
2022-08-20T07:53:53.210Z,100294.73
2022-08-20T07:59:01.534Z,100297.89
2022-08-20T08:04:07.274Z,100302.19
2022-08-20T08:09:14.956Z,100306.74
2022-08-20T08:14:26.698Z,100294.71
2022-08-20T08:19:50.421Z,100290.83
2022-08-20T08:25:00.013Z,100281.88
2022-08-20T08:30:07.353Z,100279.48
2022-08-20T08:35:38.255Z,100270.54
2022-08-20T08:40:59.822Z,100264.83
2022-08-20T08:47:19.134Z,100253.96
2022-08-20T08:53:24.289Z,100254.31
2022-08-20T08:58:37.607Z,100250.73
2022-08-20T09:03:46.048Z,100258.84
2022-08-20T09:08:55.827Z,100269.19
2022-08-20T09:14:01.697Z,100269.65
2022-08-20T09:19:09.312Z,100269.48
2022-08-20T09:24:15.045Z,100271.98
2022-08-20T09:29:20.658Z,100273.77
2022-08-20T09:34:26.603Z,100280.73
2022-08-20T09:39:32.342Z,100274.02
2022-08-20T09:44:38.184Z,100260.84
2022-08-20T09:49:45.088Z,100260.91
2022-08-20T09:54:52.099Z,100258.55
2022-08-20T10:00:02.008Z,100256.38
2022-08-20T10:05:18.277Z,100249.88
2022-08-20T10:10:25.196Z,100248.49
2022-08-20T10:15:31.192Z,100247.89
2022-08-20T10:20:37.017Z,100245.68
2022-08-20T10:25:43.383Z,100240.75
2022-08-20T10:30:49.029Z,100244.63
2022-08-20T10:35:59.676Z,100235.90
2022-08-20T10:41:05.955Z,100223.84
2022-08-20T10:46:11.656Z,100221.98
2022-08-20T10:51:17.441Z,100225.35
2022-08-20T10:56:23.999Z,100229.43
2022-08-20T11:01:32.674Z,100236.21
2022-08-20T11:06:40.964Z,100239.78
2022-08-20T11:11:50.392Z,100227.22
2022-08-20T11:16:56.415Z,100229.27
2022-08-20T11:22:03.623Z,100223.10
2022-08-20T11:27:10.504Z,100214.89
2022-08-20T11:32:16.147Z,100215.45
2022-08-20T11:37:24.484Z,100211.67
2022-08-20T11:42:29.964Z,100212.33
2022-08-20T11:47:37.324Z,100214.39
2022-08-20T11:52:43.206Z,100224.88
2022-08-20T11:57:49.985Z,100215.60
2022-08-20T12:02:55.901Z,100208.98
2022-08-20T12:08:03.358Z,100205.87
2022-08-20T12:13:09.022Z,100206.31
2022-08-20T12:18:14.868Z,100202.80
2022-08-20T12:23:20.860Z,100200.89
2022-08-20T12:28:26.588Z,100197.65
2022-08-20T12:33:32.232Z,100202.77
2022-08-20T12:38:37.790Z,100194.52
2022-08-20T12:43:43.961Z,100197.01
2022-08-20T12:48:49.708Z,100194.98
2022-08-20T12:53:55.190Z,100183.25
2022-08-20T12:59:00.959Z,100177.46
2022-08-20T13:04:06.602Z,100179.23
2022-08-20T13:09:12.896Z,100179.45
2022-08-20T13:14:18.526Z,100174.67
2022-08-20T13:19:24.311Z,100168.20
2022-08-20T13:24:30.101Z,100157.47
2022-08-20T13:29:36.038Z,100148.48
2022-08-20T13:34:42.202Z,100145.97
2022-08-20T13:39:47.902Z,100145.59
2022-08-20T13:44:53.852Z,100147.16
2022-08-20T13:50:04.810Z,100149.10
2022-08-20T13:55:14.912Z,100150.96
2022-08-20T14:00:31.625Z,100151.97
2022-08-20T14:05:38.810Z,100146.41
2022-08-20T14:10:47.179Z,100150.15
2022-08-20T14:15:57.209Z,100153.45
2022-08-20T14:21:03.083Z,100154.89
2022-08-20T14:26:08.589Z,100163.13
2022-08-20T14:31:14.015Z,100168.89
2022-08-20T14:36:19.568Z,100172.72
2022-08-20T14:41:25.254Z,100176.37
2022-08-20T14:46:30.643Z,100178.83
2022-08-20T14:51:38.733Z,100176.27
2022-08-20T14:56:44.355Z,100176.64
2022-08-20T15:01:50.199Z,100175.79
2022-08-20T15:06:55.696Z,100178.33
2022-08-20T15:12:05.586Z,100178.91
2022-08-20T15:17:17.496Z,100182.80
2022-08-20T15:22:23.998Z,100187.41
2022-08-20T15:27:29.722Z,100187.19
2022-08-20T15:32:35.442Z,100189.45
2022-08-20T15:37:43.432Z,100188.17
2022-08-20T15:42:49.337Z,100195.55
2022-08-20T15:48:08.741Z,100200.23
2022-08-20T15:53:24.742Z,100199.48
2022-08-20T15:58:39.577Z,100199.77
2022-08-20T16:04:11.590Z,100198.61
2022-08-20T16:09:38.032Z,100193.06
2022-08-20T16:14:47.514Z,100188.69
2022-08-20T16:19:59.938Z,100186.63
2022-08-20T16:25:06.376Z,100188.10
2022-08-20T16:30:21.753Z,100188.67
2022-08-20T16:35:32.065Z,100180.92
2022-08-20T16:40:49.651Z,100180.20
2022-08-20T16:46:03.143Z,100182.53
2022-08-20T16:51:16.907Z,100189.09
2022-08-20T16:56:35.377Z,100194.70
2022-08-20T17:01:40.947Z,100188.67
2022-08-20T17:06:49.351Z,100186.42
2022-08-20T17:12:15.285Z,100188.55
2022-08-20T17:17:24.850Z,100185.77
2022-08-20T17:22:39.424Z,100188.21
2022-08-20T17:27:46.202Z,100193.21
2022-08-20T17:32:59.264Z,100192.67
2022-08-20T17:38:06.227Z,100198.20
2022-08-20T17:43:25.983Z,100206.36
2022-08-20T17:48:41.578Z,100213.19
2022-08-20T17:53:52.845Z,100214.48
2022-08-20T17:59:05.887Z,100219.52
2022-08-20T18:04:12.114Z,100213.20
2022-08-20T18:09:22.722Z,100209.76
2022-08-20T18:14:39.657Z,100212.89
2022-08-20T18:20:08.765Z,100210.89
2022-08-20T18:25:26.695Z,100209.97
2022-08-20T18:30:33.470Z,100204.75
2022-08-20T18:35:45.629Z,100204.67
2022-08-20T18:40:55.248Z,100211.16
2022-08-20T18:46:13.433Z,100214.52
2022-08-20T18:51:24.576Z,100225.81
2022-08-20T18:56:38.555Z,100225.08
2022-08-20T19:01:46.596Z,100231.13
2022-08-20T19:06:57.623Z,100237.14
2022-08-20T19:12:20.730Z,100247.48
2022-08-20T19:17:40.379Z,100248.35
2022-08-20T19:22:48.198Z,100243.20
2022-08-20T19:27:55.779Z,100244.80
2022-08-20T19:33:01.873Z,100249.55
2022-08-20T19:38:15.127Z,100243.94
2022-08-20T19:43:23.509Z,100235.80
2022-08-20T19:48:43.776Z,100237.78
2022-08-20T19:53:50.998Z,100227.33
2022-08-20T19:59:06.566Z,100218.94
2022-08-20T20:04:18.100Z,100215.20
2022-08-20T20:09:27.365Z,100217.48
2022-08-20T20:14:37.376Z,100219.41
2022-08-20T20:19:50.931Z,100212.05
2022-08-20T20:25:19.910Z,100208.08
2022-08-20T20:30:28.815Z,100200.67
2022-08-20T20:35:35.731Z,100204.00
2022-08-20T20:40:49.638Z,100214.79
2022-08-20T20:46:04.134Z,100224.63
2022-08-20T20:51:18.290Z,100223.52
2022-08-20T20:56:33.984Z,100221.32
2022-08-20T21:04:59.664Z,100214.23
2022-08-20T21:10:13.743Z,100214.41
2022-08-20T21:15:19.686Z,100208.55
2022-08-20T21:20:26.142Z,100212.80
2022-08-20T21:25:34.103Z,100213.09
2022-08-20T21:30:39.621Z,100212.79
2022-08-20T21:35:45.203Z,100210.45
2022-08-20T21:40:51.013Z,100205.08
2022-08-20T21:45:56.784Z,100204.38
2022-08-20T21:51:02.176Z,100208.65
2022-08-20T21:56:08.400Z,100209.98
2022-08-20T22:01:14.690Z,100208.64
2022-08-20T22:06:21.126Z,100214.84
2022-08-20T22:11:26.645Z,100223.28
2022-08-20T22:16:32.508Z,100227.42
2022-08-20T22:21:39.628Z,100228.85
2022-08-20T22:26:45.214Z,100229.67
2022-08-20T22:31:50.838Z,100234.40
2022-08-20T22:36:59.482Z,100231.57
2022-08-20T22:42:05.381Z,100233.82
2022-08-20T22:47:12.888Z,100238.48
2022-08-20T22:52:18.429Z,100246.89
2022-08-20T22:57:23.805Z,100240.73
2022-08-20T23:02:29.468Z,100248.62
2022-08-20T23:07:35.132Z,100256.15
2022-08-20T23:12:40.624Z,100259.52
2022-08-20T23:17:46.955Z,100260.85
2022-08-20T23:22:52.289Z,100259.96
2022-08-20T23:28:04.293Z,100264.63
2022-08-20T23:33:09.963Z,100270.90
2022-08-20T23:38:16.011Z,100265.77
2022-08-20T23:43:21.517Z,100265.31
2022-08-20T23:48:27.067Z,100268.55
2022-08-20T23:53:32.584Z,100273.25
2022-08-20T23:58:38.445Z,100270.07
